Time;durP1;ratioP1;P1;durP2;ratioP2;P2;SDS_P1;SDS_P2;PMS_P1;PMS_P2;Temp;Humidity;BMP_temperature;BMP_pressure;BME280_temperature;BME280_humidity;BME280_pressure;Samples;Min_cycle;Max_cycle;Signal;HPM_P1;HPM_P2
2023/01/15 00:00:35;;;;;;;1.75;1.65;;;11.70;99.90;;;12.47;76.66;96786.47;5221613;28;20197;-65
2023/01/15 00:03:08;;;;;;;1.42;1.40;;;11.70;99.90;;;12.48;76.77;96773.72;5225568;28;20248;-66
2023/01/15 00:05:41;;;;;;;1.50;1.40;;;11.80;99.90;;;12.35;77.28;96774.16;5224025;28;20287;-64
2023/01/15 00:08:14;;;;;;;1.60;1.50;;;11.70;99.90;;;12.53;75.23;96774.75;5223316;28;20225;-64
2023/01/15 00:10:48;;;;;;;1.27;1.27;;;11.90;99.90;;;12.40;76.66;96770.03;5224483;28;20193;-64
2023/01/15 00:13:23;;;;;;;1.20;1.20;;;11.80;99.90;;;12.47;76.41;96764.28;5228946;28;20252;-63
2023/01/15 00:16:03;;;;;;;1.05;1.05;;;11.70;99.90;;;12.59;75.53;96769.81;5225092;28;20207;-64
2023/01/15 00:18:38;;;;;;;1.50;1.40;;;11.90;99.90;;;12.45;76.79;96757.34;5224185;28;20201;-64
2023/01/15 00:21:12;;;;;;;1.42;1.42;;;11.80;99.90;;;12.54;76.28;96750.84;5224247;28;20307;-63
2023/01/15 00:29:29;;;;;;;1.30;1.30;;;11.70;99.90;;;12.48;76.50;96730.16;5222982;28;20324;-63
2023/01/15 00:32:06;;;;;;;1.23;1.23;;;11.80;99.90;;;12.35;76.90;96723.75;5225763;28;20637;-65
2023/01/15 00:34:39;;;;;;;1.42;1.42;;;11.70;99.90;;;12.27;77.95;96721.78;5222263;28;20209;-63
2023/01/15 00:37:12;;;;;;;1.38;1.38;;;11.60;99.90;;;12.23;77.91;96722.53;5222747;28;20255;-65
2023/01/15 00:39:45;;;;;;;1.50;1.50;;;11.50;99.90;;;12.18;78.93;96715.53;5225114;28;20205;-65
2023/01/15 00:42:18;;;;;;;1.58;1.58;;;11.50;99.90;;;12.21;79.07;96719.03;5226418;28;20771;-64
2023/01/15 00:44:54;;;;;;;1.70;1.60;;;11.50;99.90;;;12.26;78.11;96717.50;5226092;28;20635;-65
2023/01/15 00:47:27;;;;;;;1.50;1.40;;;11.50;99.90;;;12.11;79.44;96711.06;5222639;28;20201;-64
2023/01/15 00:50:00;;;;;;;1.50;1.40;;;11.40;99.90;;;12.35;76.95;96702.41;5224226;28;20291;-63
2023/01/15 00:52:33;;;;;;;1.30;1.30;;;11.60;99.90;;;12.42;76.07;96706.91;5225788;28;20213;-63
2023/01/15 00:55:08;;;;;;;1.58;1.48;;;11.70;99.90;;;12.27;77.62;96708.97;5228213;28;20653;-63
2023/01/15 00:57:42;;;;;;;1.63;1.52;;;11.60;99.90;;;12.17;78.38;96698.44;5219140;28;20284;-62
2023/01/15 01:00:17;;;;;;;1.10;1.10;;;11.50;99.90;;;12.12;78.54;96699.09;5218448;28;20209;-64
2023/01/15 01:02:50;;;;;;;1.45;1.35;;;11.40;99.90;;;12.21;77.82;96683.16;5223087;28;20228;-65
2023/01/15 01:05:23;;;;;;;1.17;1.17;;;11.40;99.90;;;12.18;77.90;96687.34;5224657;28;20233;-64
2023/01/15 01:07:58;;;;;;;1.30;1.30;;;11.40;99.90;;;12.36;77.70;96689.66;5222339;28;20197;-65
2023/01/15 01:10:31;;;;;;;1.67;1.30;;;11.40;99.90;;;12.21;77.72;96689.16;5219686;28;20193;-64
2023/01/15 01:13:04;;;;;;;1.35;1.27;;;11.40;99.90;;;12.17;77.63;96682.22;5218395;28;20253;-63
2023/01/15 01:15:39;;;;;;;1.50;1.50;;;11.40;99.90;;;12.18;78.60;96683.94;5223623;28;20942;-64
2023/01/15 01:18:12;;;;;;;1.33;1.33;;;11.30;99.90;;;12.17;77.81;96677.94;5222598;28;20250;-63
2023/01/15 01:20:45;;;;;;;1.40;1.40;;;11.40;99.90;;;12.09;78.47;96675.97;5223468;28;20201;-63
2023/01/15 01:23:18;;;;;;;1.20;1.20;;;11.30;99.90;;;11.98;78.76;96678.16;5225586;28;20236;-64
2023/01/15 01:25:52;;;;;;;1.55;1.50;;;11.20;99.90;;;11.91;79.92;96660.88;5223292;28;20212;-65
2023/01/15 01:28:25;;;;;;;1.70;1.60;;;11.20;99.90;;;11.80;80.24;96660.50;5224280;28;20636;-63
2023/01/15 01:30:59;;;;;;;1.10;1.10;;;11.10;99.90;;;11.75;81.00;96673.97;5223908;28;20303;-65
2023/01/15 01:33:32;;;;;;;1.40;1.40;;;11.00;99.90;;;12.03;78.64;96668.09;5217981;28;20216;-65
2023/01/15 01:36:06;;;;;;;1.42;1.33;;;11.20;99.90;;;12.01;78.71;96656.91;5225169;28;20332;-64
2023/01/15 01:38:39;;;;;;;1.40;1.30;;;11.20;99.90;;;11.86;79.51;96654.75;5223910;28;20245;-63
2023/01/15 01:41:12;;;;;;;1.40;1.40;;;11.10;99.90;;;11.76;80.44;96652.66;5224518;28;20236;-65
2023/01/15 01:43:59;;;;;;;1.48;1.40;;;11.00;99.90;;;11.87;79.27;96646.22;5224051;28;20217;-64
2023/01/15 01:46:36;;;;;;;1.27;1.27;;;11.10;99.90;;;11.82;79.44;96648.63;5223654;28;20590;-64
2023/01/15 01:49:12;;;;;;;1.33;1.30;;;11.10;99.90;;;11.74;80.18;96644.94;5222028;28;20229;-64
2023/01/15 01:51:50;;;;;;;1.33;1.33;;;11.00;99.90;;;11.72;80.92;96650.00;5223775;28;20583;-65
2023/01/15 01:54:25;;;;;;;1.38;1.33;;;11.00;99.90;;;11.68;81.39;96650.72;5225200;28;20259;-66
2023/01/15 01:56:59;;;;;;;1.40;1.40;;;10.90;99.90;;;11.67;81.69;96648.09;5222454;28;20219;-66
2023/01/15 01:59:33;;;;;;;1.73;1.45;;;10.80;99.90;;;11.67;81.62;96645.53;5222188;28;20343;-65
2023/01/15 02:02:07;;;;;;;1.33;1.23;;;10.80;99.90;;;11.87;80.44;96626.59;5224847;28;20205;-65
2023/01/15 02:04:41;;;;;;;1.40;1.30;;;10.90;99.90;;;11.95;79.42;96630.28;5224249;28;20300;-66
2023/01/15 02:07:15;;;;;;;1.73;1.58;;;11.00;99.90;;;11.99;79.14;96625.25;5222813;28;20626;-65
2023/01/15 02:09:48;;;;;;;1.63;1.52;;;11.10;99.90;;;11.95;80.07;96621.75;5221897;28;20671;-65
2023/01/15 02:12:28;;;;;;;1.25;1.25;;;11.10;99.90;;;11.80;80.92;96608.44;5223707;28;20637;-65
2023/01/15 02:15:13;;;;;;;1.48;1.48;;;11.00;99.90;;;11.69;81.57;96611.50;5224468;28;20293;-63
2023/01/15 02:17:55;;;;;;;1.77;1.50;;;10.90;99.90;;;11.88;80.75;96614.69;5221363;28;20284;-63
2023/01/15 02:20:35;;;;;;;1.50;1.40;;;11.00;99.90;;;11.84;79.61;96606.00;5218326;28;20598;-65
2023/01/15 02:23:26;;;;;;;1.48;1.48;;;11.00;99.90;;;11.78;80.89;96597.25;5222393;28;20217;-64
2023/01/15 02:26:41;;;;;;;1.50;1.50;;;10.90;99.90;;;11.97;79.26;96586.81;5222751;28;20297;-65
2023/01/15 02:29:23;;;;;;;1.60;1.50;;;11.00;99.90;;;12.02;78.48;96582.72;5217294;28;20201;-64
2023/01/15 02:31:56;;;;;;;1.38;1.33;;;11.10;99.90;;;12.02;78.12;96582.72;5222440;28;20292;-65
2023/01/15 02:34:34;;;;;;;1.17;1.17;;;11.10;99.90;;;11.83;79.52;96572.69;5224396;28;20287;-64
2023/01/15 02:37:11;;;;;;;1.10;1.10;;;11.10;99.90;;;11.97;78.90;96568.03;5222694;28;20204;-64
2023/01/15 02:39:46;;;;;;;1.48;1.40;;;11.20;99.90;;;12.07;79.24;96570.88;5218906;28;20331;-64
2023/01/15 02:42:22;;;;;;;1.33;1.33;;;11.20;99.90;;;12.18;78.92;96571.22;5222305;28;20740;-63
2023/01/15 02:45:00;;;;;;;1.10;1.10;;;11.40;99.90;;;12.35;79.16;96569.16;5222916;28;20323;-64
2023/01/15 02:47:36;;;;;;;1.10;1.10;;;11.50;99.90;;;12.30;79.73;96569.00;5219543;28;20197;-65
2023/01/15 02:50:18;;;;;;;1.10;1.10;;;11.50;99.90;;;12.39;79.38;96568.44;5220708;28;20691;-62
2023/01/15 02:52:58;;;;;;;1.38;1.27;;;11.70;99.90;;;12.45;79.07;96547.22;5218067;28;20217;-64
2023/01/15 02:55:36;;;;;;;0.90;0.90;;;11.80;99.90;;;12.51;79.20;96545.72;5223487;28;20201;-64
2023/01/15 02:58:13;;;;;;;1.23;1.23;;;12.00;99.90;;;12.56;79.86;96553.53;5218315;28;20189;-64
2023/01/15 03:00:52;;;;;;;1.02;0.93;;;12.10;99.90;;;12.56;79.50;96554.41;5222655;28;20287;-63
2023/01/15 03:03:35;;;;;;;1.30;1.30;;;12.10;99.90;;;12.67;80.19;96552.13;5222272;28;20279;-63
2023/01/15 03:06:14;;;;;;;1.13;1.02;;;12.30;99.90;;;12.73;79.63;96551.44;5216981;28;20205;-63
2023/01/15 03:08:47;;;;;;;1.00;1.00;;;12.30;99.90;;;12.72;79.46;96549.69;5222722;28;20751;-64
2023/01/15 03:11:20;;;;;;;1.13;1.13;;;12.30;99.90;;;12.79;80.08;96546.47;5223979;28;20553;-64
2023/01/15 03:14:02;;;;;;;1.02;1.02;;;12.30;99.90;;;12.81;79.65;96555.06;5221703;28;20692;-63
2023/01/15 03:16:40;;;;;;;1.15;1.15;;;12.30;99.90;;;12.82;79.54;96539.75;5220731;28;20205;-64
2023/01/15 03:19:22;;;;;;;1.08;1.08;;;12.30;99.90;;;12.87;79.76;96539.84;5222442;28;20201;-65
2023/01/15 03:21:59;;;;;;;1.20;1.20;;;12.30;99.90;;;12.87;79.67;96537.28;5221068;28;20205;-64
2023/01/15 03:24:37;;;;;;;1.38;1.38;;;12.40;99.90;;;12.90;80.71;96539.94;5219218;28;20247;-64
2023/01/15 03:27:11;;;;;;;1.10;1.10;;;12.40;99.90;;;12.85;81.06;96546.66;5219029;28;20197;-62
2023/01/15 03:29:49;;;;;;;1.20;1.20;;;12.30;99.90;;;12.83;81.35;96544.03;5218740;28;20269;-63
2023/01/15 03:32:24;;;;;;;1.23;0.90;;;12.30;99.90;;;12.86;80.78;96538.13;5220848;28;20197;-65
2023/01/15 03:34:59;;;;;;;1.30;1.20;;;12.40;99.90;;;12.87;81.07;96534.72;5227281;28;20730;-65
2023/01/15 03:37:32;;;;;;;1.38;1.20;;;12.30;99.90;;;12.77;82.74;96532.75;5221046;28;20203;-65
2023/01/15 03:40:07;;;;;;;1.02;1.02;;;12.40;99.90;;;12.80;82.88;96531.13;5222181;28;20224;-63
2023/01/15 03:43:39;;;;;;;1.50;1.40;;;12.30;99.90;;;12.75;84.46;96539.53;5218797;28;20224;-63
2023/01/15 03:45:48;;;;;;;1.40;1.30;;;12.20;99.90;;;12.69;84.53;96540.22;5223044;28;20204;-64
2023/01/15 03:48:30;;;;;;;1.00;1.00;;;12.10;99.90;;;12.64;85.38;96541.78;5221816;28;20750;-64
2023/01/15 03:51:11;;;;;;;1.17;1.17;;;12.00;99.90;;;12.66;85.25;96534.16;5221565;28;20677;-63
2023/01/15 03:53:49;;;;;;;1.10;1.00;;;12.00;99.90;;;12.63;85.48;96528.09;5221657;28;20240;-65
2023/01/15 03:56:31;;;;;;;0.98;0.98;;;12.00;99.90;;;12.70;83.53;96530.84;5220798;28;20229;-65
2023/01/15 03:59:09;;;;;;;1.20;1.10;;;12.10;99.90;;;12.77;84.66;96536.19;5220467;28;20215;-64
2023/01/15 04:01:45;;;;;;;1.05;1.05;;;12.30;99.90;;;12.58;86.64;96529.66;5220464;28;20205;-63
2023/01/15 04:04:20;;;;;;;1.10;1.10;;;12.00;99.90;;;12.48;88.51;96532.81;5223015;28;20252;-64
2023/01/15 04:06:54;;;;;;;1.17;1.17;;;11.80;99.90;;;12.59;87.20;96531.44;5221478;28;20212;-65
2023/01/15 04:09:28;;;;;;;1.00;1.00;;;12.00;99.90;;;12.47;88.28;96527.63;5221498;28;20200;-64
2023/01/15 04:12:02;;;;;;;0.98;0.98;;;11.90;99.90;;;12.50;87.70;96518.34;5221434;28;20241;-64
2023/01/15 04:14:35;;;;;;;1.00;1.00;;;12.00;99.90;;;12.53;87.91;96523.56;5221525;28;20208;-63
2023/01/15 04:17:09;;;;;;;0.80;0.80;;;12.00;99.90;;;12.41;88.22;96525.78;5221340;28;20567;-62
2023/01/15 04:19:43;;;;;;;1.15;1.15;;;11.80;99.90;;;12.49;88.32;96531.97;5221368;28;20296;-63
2023/01/15 04:22:17;;;;;;;1.30;1.30;;;11.90;99.90;;;12.43;87.70;96524.13;5218852;28;20207;-63
2023/01/15 04:24:50;;;;;;;1.20;1.10;;;11.90;99.90;;;12.47;87.92;96497.75;5218090;28;20605;-64
2023/01/15 04:27:23;;;;;;;1.20;1.20;;;12.00;99.90;;;12.50;87.18;96502.94;5219801;28;20201;-62
2023/01/15 04:29:56;;;;;;;1.05;1.05;;;12.00;99.90;;;12.48;86.29;96494.38;5220733;28;20202;-64
2023/01/15 04:32:29;;;;;;;1.05;1.05;;;12.10;99.90;;;12.50;86.74;96504.66;5221934;28;20712;-63
2023/01/15 04:35:04;;;;;;;1.13;1.13;;;12.20;99.90;;;12.54;87.08;96499.66;5222303;28;20228;-64
2023/01/15 04:37:37;;;;;;;1.08;1.08;;;12.20;99.90;;;12.51;86.72;96503.84;5214610;28;20209;-63
2023/01/15 04:44:05;;;;;;;0.98;0.98;;;12.20;99.90;;;12.51;86.58;96479.09;5222642;28;20268;-64
2023/01/15 04:45:55;;;;;;;1.13;1.13;;;12.30;99.90;;;12.48;87.21;96479.00;5219477;28;20201;-63
2023/01/15 04:48:30;;;;;;;1.10;1.10;;;12.10;99.90;;;12.53;86.06;96474.88;5225103;28;20700;-63
2023/01/15 04:51:06;;;;;;;1.30;1.20;;;12.10;99.90;;;12.49;87.12;96470.47;5225304;28;20203;-62
2023/01/15 04:53:39;;;;;;;1.10;1.10;;;12.10;99.90;;;12.53;86.54;96459.50;5222782;28;20320;-63
2023/01/15 04:56:12;;;;;;;1.00;1.00;;;12.00;99.90;;;12.56;86.98;96461.25;5224802;28;20209;-63
2023/01/15 04:58:45;;;;;;;1.00;1.00;;;12.10;99.90;;;12.51;86.20;96463.72;5227746;28;20215;-65
2023/01/15 05:01:18;;;;;;;1.10;1.10;;;12.20;99.90;;;12.56;87.12;96451.88;5220862;28;20296;-64
2023/01/15 05:03:51;;;;;;;1.20;1.20;;;12.20;99.90;;;12.47;87.14;96467.00;5225288;28;20228;-64
2023/01/15 05:06:26;;;;;;;1.20;1.20;;;12.00;99.90;;;12.52;86.82;96464.56;5224028;28;20224;-65
2023/01/15 05:08:59;;;;;;;1.30;1.30;;;12.10;99.90;;;12.45;86.82;96458.41;5223270;28;20689;-64
2023/01/15 05:11:35;;;;;;;1.15;1.15;;;12.00;99.90;;;12.50;86.48;96455.97;5221169;28;20804;-64
2023/01/15 05:14:08;;;;;;;1.20;1.20;;;12.10;99.90;;;12.45;87.27;96443.03;5225149;28;20718;-63
2023/01/15 05:16:41;;;;;;;1.10;1.10;;;12.00;99.90;;;12.50;87.08;96448.28;5221885;28;20215;-64
2023/01/15 05:19:14;;;;;;;1.20;1.20;;;12.00;99.90;;;12.45;86.29;96448.16;5225448;28;20272;-63
2023/01/15 05:21:50;;;;;;;1.00;1.00;;;12.00;99.90;;;12.49;86.61;96449.97;5222614;28;20233;-64
2023/01/15 05:24:23;;;;;;;1.38;1.38;;;12.00;99.90;;;12.48;85.99;96440.56;5216382;28;20624;-64
2023/01/15 05:26:57;;;;;;;1.20;1.20;;;12.00;99.90;;;12.52;86.64;96441.50;5224448;28;20287;-64
2023/01/15 05:29:30;;;;;;;1.17;1.17;;;12.10;99.90;;;12.51;86.56;96442.34;5222507;28;20288;-64
2023/01/15 05:32:03;;;;;;;1.02;1.02;;;12.00;99.90;;;12.51;86.34;96437.22;5224335;28;20213;-63
2023/01/15 05:34:36;;;;;;;1.20;1.20;;;12.00;99.90;;;12.56;85.42;96433.94;5223962;28;20202;-64
2023/01/15 05:37:11;;;;;;;1.20;1.20;;;12.00;99.90;;;12.54;84.86;96432.16;5224692;28;20197;-64
2023/01/15 05:39:44;;;;;;;1.00;1.00;;;12.20;99.90;;;12.51;85.59;96435.50;5224738;28;20583;-62
2023/01/15 05:42:17;;;;;;;1.10;1.10;;;12.10;99.90;;;12.57;84.67;96422.84;5224455;28;20193;-65
2023/01/15 05:44:50;;;;;;;1.02;1.02;;;12.20;99.90;;;12.54;84.41;96443.28;5223460;28;20270;-64
2023/01/15 05:47:23;;;;;;;1.17;1.17;;;12.20;99.90;;;12.57;85.24;96452.75;5223452;28;20193;-64
2023/01/15 05:49:56;;;;;;;1.00;1.00;;;12.10;99.90;;;12.55;85.91;96449.28;5224192;28;20205;-64
2023/01/15 05:52:30;;;;;;;1.10;1.10;;;12.10;99.90;;;12.53;87.87;96446.69;5222538;28;20231;-64
2023/01/15 05:55:04;;;;;;;1.27;1.27;;;12.00;99.90;;;12.44;89.38;96451.53;5216228;28;20220;-64
2023/01/15 05:57:37;;;;;;;1.17;1.17;;;11.90;99.90;;;12.12;92.68;96536.06;5220705;28;20212;-64
2023/01/15 06:00:12;;;;;;;1.67;1.20;;;11.70;99.90;;;11.89;95.54;96547.31;5220379;28;20205;-62
2023/01/15 06:02:49;;;;;;;1.10;1.10;;;11.40;99.90;;;11.30;98.67;96546.25;5224524;28;20220;-64
2023/01/15 06:05:22;;;;;;;1.50;1.40;;;10.80;99.90;;;10.77;100.00;96554.72;5220632;28;20697;-64
2023/01/15 06:07:56;;;;;;;1.23;1.23;;;10.30;99.90;;;10.29;100.00;96546.16;5218585;28;20205;-64
2023/01/15 06:10:32;;;;;;;1.20;1.20;;;9.90;99.90;;;9.91;100.00;96556.63;5216344;28;20201;-63
2023/01/15 06:13:05;;;;;;;1.10;1.10;;;9.50;99.90;;;9.77;100.00;96573.09;5213717;28;20754;-63
2023/01/15 06:15:38;;;;;;;1.35;1.35;;;9.20;99.90;;;9.53;100.00;96583.22;5221535;28;20197;-63
2023/01/15 06:18:12;;;;;;;1.40;1.40;;;9.00;99.90;;;9.33;100.00;96587.50;5220742;28;20208;-64
2023/01/15 06:20:45;;;;;;;1.60;1.60;;;8.90;99.90;;;9.22;100.00;96589.59;5220943;28;20197;-64
2023/01/15 06:23:20;;;;;;;1.23;1.23;;;8.70;99.90;;;9.12;100.00;96596.78;5221388;28;20541;-64
2023/01/15 06:25:53;;;;;;;1.20;1.20;;;8.60;99.90;;;9.09;100.00;96601.75;5220785;28;20676;-64
2023/01/15 06:28:26;;;;;;;1.10;1.10;;;8.50;99.90;;;9.13;100.00;96607.06;5218574;28;20201;-63
2023/01/15 06:30:59;;;;;;;1.80;1.80;;;8.60;99.90;;;8.99;100.00;96606.47;5218156;28;20233;-63
2023/01/15 06:33:32;;;;;;;1.98;1.98;;;8.50;99.90;;;8.94;100.00;96612.19;5218999;28;20220;-63
2023/01/15 06:36:08;;;;;;;2.00;1.90;;;8.40;99.90;;;8.96;100.00;96601.25;5220882;28;20284;-64
2023/01/15 06:38:43;;;;;;;1.63;1.63;;;8.40;99.90;;;8.85;100.00;96612.66;5220844;28;20209;-63
2023/01/15 06:47:23;;;;;;;1.60;1.60;;;8.20;99.90;;;8.75;100.00;96630.88;5219818;28;20197;-62
2023/01/15 06:49:58;;;;;;;1.70;1.70;;;8.20;99.90;;;8.68;100.00;96621.25;5221020;28;20689;-62
2023/01/15 06:52:31;;;;;;;1.33;1.33;;;8.10;99.90;;;8.69;100.00;96630.63;5221681;28;20224;-63
2023/01/15 06:55:07;;;;;;;1.88;1.85;;;8.10;99.90;;;8.75;100.00;96633.44;5219743;28;20207;-63
2023/01/15 06:57:40;;;;;;;1.70;1.70;;;8.10;99.90;;;8.68;100.00;96642.50;5215663;28;20270;-63
2023/01/15 07:00:15;;;;;;;1.73;1.63;;;8.10;99.90;;;8.60;100.00;96650.59;5219867;28;20204;-63
2023/01/15 07:02:48;;;;;;;2.00;1.90;;;8.00;99.90;;;8.59;100.00;96653.97;5221125;28;20730;-62
2023/01/15 07:05:22;;;;;;;1.87;1.87;;;8.00;99.90;;;8.57;100.00;96664.94;5220815;28;20312;-64
2023/01/15 07:07:55;;;;;;;1.60;1.60;;;7.90;99.90;;;8.43;100.00;96668.53;5220601;28;20288;-64
2023/01/15 07:10:29;;;;;;;2.20;2.10;;;7.90;99.90;;;8.47;100.00;96675.50;5213487;28;20224;-63
2023/01/15 07:13:02;;;;;;;1.97;1.97;;;7.80;99.90;;;8.50;100.00;96675.66;5218534;28;20252;-63
2023/01/15 07:15:37;;;;;;;1.70;1.70;;;7.90;99.90;;;8.28;100.00;96686.47;5220384;28;20224;-65
2023/01/15 07:18:10;;;;;;;2.40;2.30;;;7.80;99.90;;;8.26;100.00;96689.75;5218853;28;20210;-63
2023/01/15 07:20:43;;;;;;;1.93;1.83;;;7.70;99.90;;;8.12;100.00;96689.09;5218885;28;20198;-64
2023/01/15 07:23:16;;;;;;;1.97;1.97;;;7.60;99.90;;;8.04;100.00;96698.03;5222648;28;20256;-64
2023/01/15 07:25:53;;;;;;;1.33;1.33;;;7.50;99.90;;;7.76;100.00;96700.94;5219707;28;20241;-62
2023/01/15 07:28:26;;;;;;;2.13;1.93;;;7.30;99.90;;;7.78;100.00;96717.13;5218701;28;20287;-63
2023/01/15 07:30:59;;;;;;;1.70;1.70;;;7.30;99.90;;;7.73;100.00;96721.13;5214947;28;20663;-62
2023/01/15 07:33:32;;;;;;;1.70;1.70;;;7.20;99.90;;;7.61;100.00;96737.53;5219660;28;20758;-63
2023/01/15 07:36:06;;;;;;;1.83;1.80;;;7.10;99.90;;;7.69;100.00;96740.44;5222736;28;20280;-62
2023/01/15 07:38:39;;;;;;;2.20;2.10;;;7.20;99.90;;;7.56;100.00;96751.69;5220489;28;20201;-64
2023/01/15 07:49:47;;;;;;;2.10;2.00;;;6.80;99.90;;;7.29;100.00;96821.41;5218754;28;20194;-63
2023/01/15 07:52:22;;;;;;;2.63;2.53;;;6.70;99.90;;;7.19;100.00;96803.16;5220572;28;20196;-62
2023/01/15 07:54:55;;;;;;;2.00;1.90;;;6.70;99.90;;;7.09;100.00;96811.06;5220478;28;20197;-62
2023/01/15 07:57:30;;;;;;;2.43;2.33;;;6.60;99.90;;;6.96;100.00;96823.94;5221202;28;20201;-63
2023/01/15 08:00:04;;;;;;;2.10;2.00;;;6.50;99.90;;;7.00;100.00;96830.91;5219130;28;20298;-62
2023/01/15 08:02:38;;;;;;;2.30;2.20;;;6.40;99.90;;;6.96;100.00;96831.53;5220671;28;20303;-62
2023/01/15 08:05:11;;;;;;;2.10;2.00;;;6.40;99.90;;;7.04;100.00;96840.47;5222329;28;20245;-63
2023/01/15 08:07:45;;;;;;;2.00;1.90;;;6.40;99.90;;;7.07;100.00;96850.78;5220004;28;20228;-62
2023/01/15 08:10:19;;;;;;;1.60;1.60;;;6.40;99.90;;;6.94;100.00;96863.59;5222061;28;20202;-63
2023/01/15 08:15:44;;;;;;;2.40;2.30;;;6.30;99.90;;;6.93;100.00;96874.56;5213380;28;20249;-62
2023/01/15 08:18:17;;;;;;;2.07;1.97;;;6.40;99.90;;;6.99;100.00;96885.06;5222800;28;20643;-62
2023/01/15 08:20:50;;;;;;;1.77;1.67;;;6.40;99.90;;;6.98;100.00;96878.19;5220585;28;20274;-62
2023/01/15 08:23:23;;;;;;;2.10;2.00;;;6.40;99.90;;;6.93;100.00;96874.56;5222823;28;20252;-62
2023/01/15 08:25:59;;;;;;;1.90;1.80;;;6.40;99.90;;;7.10;100.00;96886.53;5219886;28;20231;-62
2023/01/15 08:28:34;;;;;;;2.20;2.10;;;6.40;99.90;;;7.19;100.00;96893.75;5221939;28;20193;-61
2023/01/15 08:31:08;;;;;;;2.13;2.03;;;6.30;99.90;;;7.18;100.00;96897.97;5223498;28;20197;-62
2023/01/15 08:33:41;;;;;;;1.77;1.77;;;6.40;99.90;;;6.96;100.00;96907.75;5221720;28;20236;-62
2023/01/15 08:36:15;;;;;;;2.07;1.97;;;6.30;99.90;;;6.93;100.00;96902.50;5219402;28;20231;-63
2023/01/15 08:38:49;;;;;;;2.23;2.13;;;6.30;99.90;;;6.94;100.00;96900.03;5220822;28;20205;-63
2023/01/15 08:41:22;;;;;;;2.37;2.27;;;6.30;99.90;;;6.91;100.00;96906.63;5221929;28;20233;-63
2023/01/15 08:43:57;;;;;;;2.33;2.23;;;6.30;99.90;;;7.02;100.00;96903.00;5219466;28;20225;-62
2023/01/15 08:46:30;;;;;;;2.20;2.10;;;6.20;99.90;;;6.97;100.00;96909.50;5219622;28;20318;-62
2023/01/15 08:49:03;;;;;;;2.10;2.00;;;6.20;99.90;;;6.91;100.00;96921.84;5218253;28;20201;-63
2023/01/15 08:51:38;;;;;;;3.00;2.40;;;6.20;99.90;;;6.88;100.00;96921.69;5222918;28;20207;-63
2023/01/15 08:54:12;;;;;;;1.73;1.73;;;6.20;99.90;;;7.04;100.00;96926.84;5219421;28;20255;-63
2023/01/15 08:56:45;;;;;;;2.30;2.13;;;6.20;99.90;;;7.05;100.00;96926.03;5220023;28;20220;-63
2023/01/15 08:59:20;;;;;;;1.63;1.63;;;6.30;99.90;;;7.00;100.00;96942.69;5220862;28;20225;-63
2023/01/15 09:01:53;;;;;;;1.80;1.63;;;6.30;99.90;;;6.94;100.00;96947.44;5217041;28;20201;-64
2023/01/15 09:04:27;;;;;;;2.10;2.00;;;6.20;99.90;;;6.89;100.00;96954.78;5214241;28;20221;-63
2023/01/15 09:07:00;;;;;;;2.17;2.07;;;6.20;99.90;;;6.88;100.00;96957.25;5216653;28;20587;-63
2023/01/15 09:09:34;;;;;;;2.10;2.00;;;6.20;99.90;;;6.92;100.00;96954.94;5214978;28;20677;-64
2023/01/15 09:12:07;;;;;;;1.90;1.90;;;6.20;99.90;;;6.93;100.00;96945.69;5221331;28;20288;-63
2023/01/15 09:14:42;;;;;;;2.30;2.20;;;6.30;99.90;;;6.87;100.00;96965.66;5221720;28;20265;-64
2023/01/15 09:17:39;;;;;;;2.50;2.40;;;6.20;99.90;;;6.86;100.00;96968.97;5221609;28;20213;-63
2023/01/15 09:20:14;;;;;;;2.43;2.33;;;6.20;99.90;;;6.85;100.00;96970.63;5219489;28;20570;-63
2023/01/15 09:22:47;;;;;;;2.40;2.30;;;6.20;99.90;;;6.84;100.00;96971.44;5220991;28;20224;-64
2023/01/15 09:25:23;;;;;;;1.80;1.80;;;6.20;99.90;;;6.81;100.00;96970.38;5220141;28;20766;-63
2023/01/15 09:27:56;;;;;;;2.20;2.10;;;6.10;99.90;;;6.82;100.00;96969.59;5221519;28;20408;-63
2023/01/15 09:30:31;;;;;;;2.27;2.07;;;6.10;99.90;;;6.73;100.00;96969.97;5220945;28;20216;-63
2023/01/15 09:33:04;;;;;;;2.13;2.03;;;6.10;99.90;;;6.70;100.00;96977.41;5216726;28;20960;-63
2023/01/15 09:35:37;;;;;;;1.43;1.33;;;6.10;99.90;;;6.71;100.00;96982.53;5221746;28;20202;-63
2023/01/15 09:38:12;;;;;;;2.00;1.90;;;6.00;99.90;;;6.66;100.00;96991.56;5218446;28;20323;-63
2023/01/15 09:40:50;;;;;;;20.47;9.80;;;6.10;99.90;;;6.77;100.00;96995.59;5228445;28;20208;-62
2023/01/15 09:43:39;;;;;;;3.07;2.77;;;6.10;99.90;;;6.76;100.00;97009.09;5224389;28;20323;-62
2023/01/15 09:46:31;;;;;;;1.83;1.73;;;6.10;99.90;;;6.91;100.00;97009.09;5219900;28;20227;-63
2023/01/15 09:49:21;;;;;;;1.63;1.63;;;6.10;99.90;;;6.74;100.00;97013.19;5226731;28;20296;-63
2023/01/15 09:52:06;;;;;;;1.83;1.83;;;6.10;99.90;;;6.63;100.00;97026.06;5224831;28;20205;-63
2023/01/15 09:54:50;;;;;;;1.90;1.80;;;6.00;99.90;;;6.63;100.00;97043.81;5222746;28;20303;-62
2023/01/15 09:57:25;;;;;;;2.30;2.17;;;6.00;99.90;;;6.59;100.00;97040.25;5227922;28;20287;-63
2023/01/15 10:00:01;;;;;;;2.50;2.40;;;6.00;99.90;;;6.46;100.00;97030.13;5227879;28;20201;-62
2023/01/15 10:02:43;;;;;;;1.80;1.80;;;5.90;99.90;;;6.43;100.00;97033.38;5224322;28;20225;-62
2023/01/15 10:05:22;;;;;;;1.87;1.77;;;5.90;99.90;;;6.52;100.00;97028.84;5216836;28;21075;-62
2023/01/15 10:08:02;;;;;;;2.30;2.20;;;5.90;99.90;;;6.40;100.00;97028.13;5218649;28;20235;-63
2023/01/15 10:10:41;;;;;;;1.93;1.83;;;5.80;99.90;;;6.28;100.00;97035.88;5218826;28;20205;-63
2023/01/15 10:13:28;;;;;;;2.10;2.00;;;5.70;99.90;;;6.30;100.00;97041.94;5219561;28;20225;-62
2023/01/15 10:16:02;;;;;;;2.03;1.93;;;5.70;99.90;;;6.27;100.00;97034.13;5220947;28;20635;-63
2023/01/15 10:18:41;;;;;;;1.73;1.73;;;5.70;99.90;;;6.34;100.00;97032.81;5220668;28;20227;-63
2023/01/15 10:21:29;;;;;;;2.17;1.97;;;5.70;99.90;;;6.34;100.00;97042.09;5221266;28;20288;-63
2023/01/15 10:24:07;;;;;;;1.80;1.70;;;5.80;99.90;;;6.37;100.00;97039.75;5219296;28;20239;-63
2023/01/15 10:26:46;;;;;;;1.90;1.83;;;5.80;99.90;;;6.37;100.00;97042.28;5221425;28;20311;-64
2023/01/15 10:29:26;;;;;;;1.73;1.63;;;5.80;99.90;;;6.32;100.00;97040.38;5219823;28;20253;-63
2023/01/15 10:32:10;;;;;;;2.40;2.30;;;5.70;99.90;;;6.45;100.00;97041.97;5220478;28;20206;-63
2023/01/15 10:35:18;;;;;;;2.13;1.97;;;5.80;99.90;;;6.52;100.00;97044.09;5217990;28;20216;-63
2023/01/15 10:37:59;;;;;;;2.17;2.07;;;5.90;99.90;;;6.35;100.00;97052.34;5217878;28;20524;-62
2023/01/15 10:40:57;;;;;;;2.80;2.60;;;5.80;99.90;;;6.34;100.00;97058.22;5220261;28;20273;-63
2023/01/15 10:43:44;;;;;;;4.73;4.53;;;5.80;99.90;;;6.47;100.00;97060.72;5217868;28;20221;-63
2023/01/15 10:46:20;;;;;;;2.70;2.60;;;5.80;99.90;;;6.58;100.00;97078.22;5214675;28;20217;-63
2023/01/15 10:48:57;;;;;;;2.20;2.10;;;5.80;99.90;;;6.43;100.00;97093.41;5216408;28;20211;-62
2023/01/15 10:51:38;;;;;;;2.10;2.00;;;5.70;99.90;;;6.46;100.00;97088.53;5217056;28;20300;-63
2023/01/15 10:54:22;;;;;;;2.20;2.10;;;5.70;99.90;;;6.33;100.00;97084.38;5214241;28;20722;-63
2023/01/15 10:57:08;;;;;;;2.33;2.23;;;5.70;99.90;;;6.08;100.00;97090.47;5215043;28;20673;-64
2023/01/15 10:59:48;;;;;;;2.50;2.40;;;5.50;99.90;;;6.01;100.00;97090.91;5219386;28;20621;-64
2023/01/15 11:02:27;;;;;;;2.30;2.20;;;5.40;99.90;;;5.99;100.00;97091.59;5216143;28;20901;-64
2023/01/15 11:05:02;;;;;;;1.97;1.87;;;5.40;99.90;;;5.73;100.00;97093.34;5217398;28;20209;-63
2023/01/15 11:07:41;;;;;;;2.10;2.00;;;5.30;99.90;;;5.78;100.00;97089.44;5214607;28;20833;-64
2023/01/15 11:10:35;;;;;;;2.77;2.57;;;5.30;99.90;;;5.77;100.00;97092.72;5220707;28;20758;-64
2023/01/15 11:19:38;;;;;;;2.03;1.93;;;5.10;99.90;;;5.56;100.00;97106.59;5217978;28;20201;-63
2023/01/15 11:22:16;;;;;;;2.37;2.27;;;5.10;99.90;;;5.48;100.00;97123.84;5218310;28;20220;-63
2023/01/15 11:24:53;;;;;;;2.97;2.77;;;5.00;99.90;;;5.42;100.00;97124.31;5219625;28;20668;-64
2023/01/15 11:27:28;;;;;;;7.70;6.90;;;4.90;99.90;;;5.47;100.00;97123.75;5217270;28;20599;-64
2023/01/15 11:30:05;;;;;;;12.57;7.73;;;4.90;99.90;;;5.52;100.00;97124.91;5219798;28;20699;-62
2023/01/15 11:32:39;;;;;;;4.13;3.83;;;4.90;99.90;;;5.57;100.00;97133.69;5221664;28;20926;-63